Time;durP1;ratioP1;P1;durP2;ratioP2;P2;SDS_P1;SDS_P2;PMS_P1;PMS_P2;Temp;Humidity;BMP_temperature;BMP_pressure;BME280_temperature;BME280_humidity;BME280_pressure;Samples;Min_cycle;Max_cycle;Signal;HPM_P1;HPM_P2
2022/09/02 00:00:59;;;;;;;0.20;0.20;;;16.40;95.90;;;;;;5015413;28;20462;-83
2022/09/02 00:03:33;;;;;;;0.20;0.20;;;16.40;96.00;;;;;;5027052;28;20106;-83
2022/09/02 00:05:59;;;;;;;0.20;0.20;;;16.40;96.00;;;;;;5027450;28;20053;-81
2022/09/02 00:08:25;;;;;;;0.30;0.30;;;16.40;96.00;;;;;;5016455;28;20056;-81
2022/09/02 00:10:51;;;;;;;0.20;0.20;;;16.30;96.00;;;;;;5015489;28;20053;-81
2022/09/02 00:13:19;;;;;;;0.20;0.20;;;16.30;96.00;;;;;;5025091;28;20132;-81
2022/09/02 00:15:46;;;;;;;0.20;0.20;;;16.30;96.10;;;;;;5019564;28;20064;-81
2022/09/02 00:18:13;;;;;;;0.10;0.10;;;16.20;96.10;;;;;;5023561;28;20042;-81
2022/09/02 00:20:44;;;;;;;0.20;0.20;;;16.20;96.10;;;;;;5015291;28;20041;-81
2022/09/02 00:23:10;;;;;;;0.10;0.10;;;16.20;96.20;;;;;;5023574;28;20087;-80
2022/09/02 00:25:38;;;;;;;0.20;0.20;;;16.20;96.10;;;;;;5027570;28;20447;-81
2022/09/02 00:28:05;;;;;;;0.20;0.20;;;16.10;96.10;;;;;;5022619;28;20049;-81
2022/09/02 00:30:32;;;;;;;0.20;0.20;;;16.10;96.20;;;;;;5029354;28;20072;-81
2022/09/02 00:32:58;;;;;;;0.20;0.20;;;16.10;96.20;;;;;;5026558;28;20441;-80
2022/09/02 00:35:24;;;;;;;0.20;0.20;;;16.00;96.20;;;;;;5020102;28;20072;-80
2022/09/02 00:37:50;;;;;;;0.20;0.20;;;16.00;96.20;;;;;;5029387;28;20118;-81
2022/09/02 00:40:16;;;;;;;0.20;0.20;;;16.00;96.20;;;;;;5025985;28;20091;-80
2022/09/02 00:42:42;;;;;;;0.20;0.20;;;16.00;96.30;;;;;;5018879;28;20071;-81
2022/09/02 00:45:09;;;;;;;0.20;0.20;;;15.90;96.30;;;;;;5024487;28;20042;-81
2022/09/02 00:47:35;;;;;;;0.10;0.10;;;15.90;96.30;;;;;;5012938;28;20445;-81
2022/09/02 00:50:04;;;;;;;0.20;0.20;;;15.90;96.30;;;;;;5019564;28;20457;-80
2022/09/02 00:52:39;;;;;;;0.20;0.20;;;15.90;96.30;;;;;;5027097;28;20485;-81
2022/09/02 00:55:18;;;;;;;0.20;0.20;;;15.80;96.30;;;;;;5029316;28;20041;-81
2022/09/02 00:57:48;;;;;;;0.20;0.20;;;15.80;96.30;;;;;;5013555;28;20048;-81
2022/09/02 01:00:22;;;;;;;0.20;0.20;;;15.80;96.30;;;;;;5025573;28;20144;-81
2022/09/02 01:02:58;;;;;;;0.20;0.20;;;15.70;96.30;;;;;;5022740;28;20095;-82
2022/09/02 01:05:27;;;;;;;0.20;0.20;;;15.70;96.40;;;;;;5025714;28;20041;-80
2022/09/02 01:07:55;;;;;;;0.20;0.20;;;15.90;96.50;;;;;;5025067;28;20162;-81
2022/09/02 01:10:25;;;;;;;0.20;0.20;;;15.70;96.50;;;;;;5021189;28;20381;-80
2022/09/02 01:12:59;;;;;;;0.20;0.20;;;15.60;96.50;;;;;;5018304;28;20136;-81
2022/09/02 01:15:26;;;;;;;0.20;0.20;;;15.60;96.50;;;;;;5027747;28;20392;-81
2022/09/02 01:17:52;;;;;;;0.20;0.20;;;15.60;96.50;;;;;;5020334;28;20054;-81
2022/09/02 01:20:24;;;;;;;0.20;0.20;;;15.60;96.60;;;;;;5017838;28;20049;-80
2022/09/02 01:22:51;;;;;;;0.20;0.20;;;15.50;96.60;;;;;;5017071;28;20517;-81
2022/09/02 01:25:24;;;;;;;0.10;0.10;;;15.50;96.60;;;;;;5022891;28;20120;-81
2022/09/02 01:27:50;;;;;;;0.20;0.20;;;15.50;96.70;;;;;;5025326;28;20054;-80
2022/09/02 01:30:21;;;;;;;0.20;0.20;;;15.40;96.70;;;;;;5026915;28;20412;-80
2022/09/02 01:32:47;;;;;;;0.20;0.20;;;15.40;96.70;;;;;;5041482;28;20053;-81
2022/09/02 01:35:14;;;;;;;0.10;0.10;;;15.40;96.80;;;;;;5025956;28;20056;-81
2022/09/02 01:37:41;;;;;;;0.20;0.20;;;15.40;96.80;;;;;;5027454;28;20728;-80
2022/09/02 01:40:10;;;;;;;0.20;0.20;;;15.30;96.80;;;;;;5043215;28;20050;-81
2022/09/02 01:42:37;;;;;;;0.20;0.20;;;15.30;96.90;;;;;;5020405;28;20045;-81
2022/09/02 01:45:04;;;;;;;0.20;0.20;;;15.20;96.90;;;;;;5014008;28;20121;-81
2022/09/02 01:47:30;;;;;;;0.10;0.10;;;15.20;96.90;;;;;;5017656;28;20064;-81
2022/09/02 01:49:56;;;;;;;0.20;0.20;;;15.20;96.90;;;;;;5015308;28;20045;-82
2022/09/02 01:52:23;;;;;;;0.20;0.20;;;15.20;96.90;;;;;;5010732;28;20054;-81
2022/09/02 01:54:49;;;;;;;0.10;0.10;;;15.10;97.00;;;;;;5027152;28;20054;-81
2022/09/02 01:57:15;;;;;;;0.20;0.20;;;15.20;97.00;;;;;;5021982;28;20034;-81
2022/09/02 01:59:43;;;;;;;0.20;0.20;;;15.10;97.00;;;;;;5019503;28;20118;-80
2022/09/02 02:02:09;;;;;;;0.20;0.20;;;15.10;97.10;;;;;;5027855;28;20056;-81
2022/09/02 02:04:35;;;;;;;0.20;0.20;;;15.10;97.20;;;;;;5022968;28;20037;-81
2022/09/02 02:07:00;;;;;;;0.20;0.20;;;15.10;97.20;;;;;;5016442;28;20050;-81
2022/09/02 02:09:26;;;;;;;0.10;0.10;;;15.00;97.20;;;;;;5008665;28;20124;-81
2022/09/02 02:11:52;;;;;;;0.20;0.20;;;15.00;97.20;;;;;;5020152;28;20742;-81
2022/09/02 02:14:18;;;;;;;0.20;0.20;;;15.00;97.30;;;;;;5013654;28;20438;-81
2022/09/02 02:16:44;;;;;;;0.20;0.20;;;14.90;97.30;;;;;;5022853;28;20069;-81
2022/09/02 02:19:10;;;;;;;0.20;0.20;;;14.90;97.30;;;;;;5022257;28;20037;-82
2022/09/02 02:21:36;;;;;;;0.20;0.20;;;14.90;97.40;;;;;;5019624;28;20087;-82
2022/09/02 02:24:02;;;;;;;0.10;0.10;;;14.90;97.30;;;;;;5025912;28;20122;-81
2022/09/02 02:26:29;;;;;;;0.20;0.20;;;14.90;97.50;;;;;;5013982;28;20428;-81
2022/09/02 02:28:54;;;;;;;0.17;0.17;;;14.80;97.50;;;;;;5016871;28;20049;-81
2022/09/02 02:31:20;;;;;;;0.20;0.20;;;14.80;97.50;;;;;;5021966;28;20049;-81
2022/09/02 02:33:46;;;;;;;0.20;0.20;;;14.90;97.60;;;;;;5023656;28;20090;-81
2022/09/02 02:36:12;;;;;;;0.20;0.20;;;14.80;97.60;;;;;;5011781;28;20046;-81
2022/09/02 02:38:38;;;;;;;0.20;0.20;;;14.80;97.70;;;;;;5024912;28;20041;-81
2022/09/02 02:41:05;;;;;;;0.20;0.20;;;14.80;97.70;;;;;;5027820;28;20034;-81
2022/09/02 02:43:32;;;;;;;0.20;0.20;;;14.70;97.70;;;;;;5029902;28;20772;-81
2022/09/02 02:45:58;;;;;;;0.15;0.15;;;14.80;97.80;;;;;;5029429;28;20064;-81
2022/09/02 02:48:24;;;;;;;0.20;0.20;;;14.60;97.80;;;;;;5022582;28;20520;-81
2022/09/02 02:50:50;;;;;;;0.20;0.20;;;14.70;97.80;;;;;;5024640;28;20054;-81
2022/09/02 02:53:16;;;;;;;0.15;0.15;;;14.60;97.80;;;;;;5016679;28;20042;-80
2022/09/02 02:55:42;;;;;;;0.20;0.20;;;14.60;97.80;;;;;;5021473;28;20033;-81
2022/09/02 02:58:08;;;;;;;0.17;0.17;;;14.60;97.90;;;;;;5025337;28;20134;-81
2022/09/02 03:00:35;;;;;;;0.20;0.20;;;14.60;98.00;;;;;;5026423;28;20104;-80
2022/09/02 03:03:09;;;;;;;0.13;0.13;;;14.50;98.00;;;;;;5025272;28;20072;-81
2022/09/02 03:05:36;;;;;;;0.20;0.20;;;14.50;98.00;;;;;;5028394;28;20058;-80
2022/09/02 03:08:05;;;;;;;0.10;0.10;;;14.50;98.10;;;;;;5024744;28;20045;-81
2022/09/02 03:10:32;;;;;;;0.20;0.20;;;14.50;98.10;;;;;;5031316;28;20500;-80
2022/09/02 03:13:01;;;;;;;0.10;0.10;;;14.50;98.20;;;;;;5028951;28;20064;-80
2022/09/02 03:15:28;;;;;;;0.20;0.20;;;14.40;98.20;;;;;;5028480;28;20085;-80
2022/09/02 03:17:55;;;;;;;0.20;0.20;;;14.40;98.20;;;;;;5025119;28;20042;-80
2022/09/02 03:20:21;;;;;;;0.20;0.20;;;14.40;98.30;;;;;;5028747;28;20255;-80
2022/09/02 03:22:49;;;;;;;0.10;0.10;;;14.30;98.30;;;;;;5029321;28;20045;-81
2022/09/02 03:25:19;;;;;;;0.20;0.20;;;14.30;98.40;;;;;;5020341;28;20132;-81
2022/09/02 03:27:45;;;;;;;0.10;0.10;;;14.30;98.40;;;;;;5021955;28;20083;-80
2022/09/02 03:30:14;;;;;;;0.20;0.20;;;14.30;98.40;;;;;;5018506;28;20038;-80
2022/09/02 03:32:40;;;;;;;0.20;0.20;;;14.30;98.50;;;;;;5024588;28;20038;-81
2022/09/02 03:35:10;;;;;;;0.20;0.20;;;14.20;98.50;;;;;;5031841;28;20435;-81
2022/09/02 03:37:36;;;;;;;0.20;0.20;;;14.20;98.50;;;;;;5030283;28;20037;-81
2022/09/02 03:40:11;;;;;;;0.20;0.20;;;14.20;98.60;;;;;;5030585;28;20116;-81
2022/09/02 03:42:37;;;;;;;0.20;0.20;;;14.20;98.60;;;;;;5018697;28;20056;-81
2022/09/02 03:45:04;;;;;;;0.20;0.20;;;14.20;98.70;;;;;;5028301;28;20045;-81
2022/09/02 03:47:29;;;;;;;0.20;0.20;;;14.20;98.70;;;;;;5029825;28;20046;-81
2022/09/02 03:49:56;;;;;;;0.20;0.20;;;14.10;98.80;;;;;;5030799;28;20096;-80
2022/09/02 03:52:22;;;;;;;0.20;0.20;;;14.10;98.80;;;;;;5021587;28;20042;-79
2022/09/02 03:54:48;;;;;;;0.10;0.10;;;14.00;98.80;;;;;;5027822;28;20072;-80
2022/09/02 03:57:14;;;;;;;0.20;0.20;;;14.00;98.90;;;;;;5026778;28;20065;-80
2022/09/02 03:59:40;;;;;;;0.20;0.20;;;14.10;98.90;;;;;;5030370;28;20103;-80
2022/09/02 04:02:06;;;;;;;0.20;0.20;;;14.00;99.00;;;;;;5024578;28;20073;-81
2022/09/02 04:04:32;;;;;;;0.20;0.20;;;14.00;99.00;;;;;;5025533;28;20064;-81
2022/09/02 04:06:59;;;;;;;0.20;0.20;;;14.00;99.10;;;;;;5019576;28;20475;-80
2022/09/02 04:09:24;;;;;;;0.20;0.20;;;13.90;99.10;;;;;;5030182;28;20551;-81
2022/09/02 04:11:50;;;;;;;0.20;0.20;;;13.90;99.10;;;;;;5020359;28;20049;-81
2022/09/02 04:14:16;;;;;;;0.20;0.20;;;13.90;99.20;;;;;;5028798;28;20041;-80
2022/09/02 04:16:42;;;;;;;0.20;0.20;;;13.90;99.20;;;;;;5014914;28;20049;-81
2022/09/02 04:19:08;;;;;;;0.20;0.20;;;13.80;99.20;;;;;;5026962;28;20080;-80
2022/09/02 04:21:36;;;;;;;0.20;0.20;;;13.80;99.20;;;;;;5022797;28;20049;-80
2022/09/02 04:24:03;;;;;;;0.20;0.20;;;13.80;99.30;;;;;;5030979;28;20096;-81
2022/09/02 04:26:29;;;;;;;0.20;0.20;;;13.80;99.30;;;;;;5026780;28;20057;-81
2022/09/02 04:28:55;;;;;;;0.20;0.20;;;13.80;99.40;;;;;;5027478;28;20045;-80
2022/09/02 04:31:28;;;;;;;0.10;0.10;;;13.70;99.40;;;;;;5022432;28;20050;-81
2022/09/02 04:33:55;;;;;;;0.20;0.20;;;13.70;99.50;;;;;;5018456;28;20069;-81
2022/09/02 04:36:22;;;;;;;0.20;0.20;;;13.70;99.50;;;;;;5024950;28;20061;-81
2022/09/02 04:38:48;;;;;;;0.10;0.10;;;13.70;99.60;;;;;;5019193;28;20033;-81
2022/09/02 04:41:21;;;;;;;0.20;0.20;;;13.70;99.60;;;;;;5023434;28;20403;-81
2022/09/02 04:43:51;;;;;;;0.20;0.20;;;13.60;99.60;;;;;;5029117;28;20042;-80
2022/09/02 04:46:18;;;;;;;0.20;0.20;;;13.60;99.70;;;;;;5023158;28;20366;-81
2022/09/02 04:48:44;;;;;;;0.20;0.20;;;13.70;99.70;;;;;;5028388;28;20047;-81
2022/09/02 04:51:22;;;;;;;0.20;0.20;;;13.70;99.80;;;;;;5019635;28;20037;-81
2022/09/02 04:53:49;;;;;;;0.20;0.20;;;13.60;99.80;;;;;;5029020;28;20049;-82
2022/09/02 04:56:19;;;;;;;0.20;0.20;;;13.60;99.80;;;;;;5028140;28;20084;-81
2022/09/02 04:58:45;;;;;;;0.20;0.20;;;13.60;99.90;;;;;;5022433;28;20512;-81
2022/09/02 05:01:17;;;;;;;0.20;0.20;;;13.50;99.90;;;;;;5014703;28;20034;-81
2022/09/02 05:03:44;;;;;;;0.17;0.17;;;13.50;99.90;;;;;;5022742;28;20033;-81
2022/09/02 05:06:13;;;;;;;0.20;0.20;;;13.50;99.90;;;;;;5015770;28;20046;-82
2022/09/02 05:08:41;;;;;;;0.20;0.20;;;13.50;99.90;;;;;;5018812;28;20045;-80
2022/09/02 05:11:13;;;;;;;0.10;0.10;;;13.50;99.90;;;;;;5027821;28;20049;-82
2022/09/02 05:13:40;;;;;;;0.20;0.20;;;13.50;99.90;;;;;;5017668;28;20049;-81
2022/09/02 05:16:06;;;;;;;0.10;0.10;;;13.50;99.90;;;;;;5027904;28;20050;-82
2022/09/02 05:18:32;;;;;;;0.20;0.20;;;13.50;99.90;;;;;;5029167;28;20044;-82
2022/09/02 05:20:58;;;;;;;0.20;0.20;;;13.50;99.90;;;;;;5023837;28;20473;-82
2022/09/02 05:23:24;;;;;;;0.20;0.20;;;13.60;99.90;;;;;;5011285;28;20115;-82
2022/09/02 05:25:49;;;;;;;0.20;0.20;;;13.50;99.90;;;;;;5023010;28;20093;-82
2022/09/02 05:28:15;;;;;;;0.20;0.20;;;13.50;99.90;;;;;;5019039;28;20181;-80
2022/09/02 05:30:41;;;;;;;0.20;0.20;;;13.50;99.90;;;;;;5015093;28;20049;-82
2022/09/02 05:33:08;;;;;;;0.20;0.20;;;13.50;99.90;;;;;;5021829;28;20084;-82
2022/09/02 05:35:39;;;;;;;0.20;0.20;;;13.60;99.90;;;;;;5019106;28;20041;-81
2022/09/02 05:38:05;;;;;;;0.20;0.20;;;13.60;99.90;;;;;;5020374;28;20072;-82
2022/09/02 05:40:32;;;;;;;0.20;0.20;;;13.70;99.90;;;;;;5020173;28;20409;-82
2022/09/02 05:42:57;;;;;;;0.20;0.20;;;13.60;99.90;;;;;;5017237;28;20038;-82
2022/09/02 05:45:23;;;;;;;0.10;0.10;;;13.70;99.90;;;;;;5014859;28;20107;-82
2022/09/02 05:47:49;;;;;;;0.20;0.20;;;13.70;99.90;;;;;;5011264;28;20046;-82
2022/09/02 05:50:15;;;;;;;0.20;0.20;;;13.70;99.90;;;;;;5016047;28;20044;-81
2022/09/02 05:52:41;;;;;;;0.20;0.20;;;13.70;99.90;;;;;;5018376;28;20129;-81
2022/09/02 05:55:08;;;;;;;0.20;0.20;;;13.80;99.90;;;;;;5015158;28;20073;-82
2022/09/02 05:57:33;;;;;;;0.20;0.20;;;13.80;99.90;;;;;;5017940;28;20146;-82
2022/09/02 05:59:59;;;;;;;0.10;0.10;;;13.80;99.90;;;;;;5019708;28;20041;-82
2022/09/02 06:02:25;;;;;;;0.20;0.20;;;13.90;99.90;;;;;;5023010;28;20050;-81
2022/09/02 06:04:52;;;;;;;0.10;0.10;;;13.90;99.90;;;;;;5020034;28;20048;-82
2022/09/02 06:07:21;;;;;;;0.10;0.10;;;13.90;99.90;;;;;;5017854;28;20488;-82
2022/09/02 06:09:47;;;;;;;0.10;0.10;;;13.90;99.90;;;;;;5014512;28;20041;-83
2022/09/02 06:12:16;;;;;;;0.15;0.15;;;14.00;99.90;;;;;;5018498;28;20432;-82
2022/09/02 06:14:42;;;;;;;0.10;0.10;;;14.00;99.90;;;;;;5014089;28;20543;-83
2022/09/02 06:17:08;;;;;;;0.10;0.10;;;14.10;99.90;;;;;;5013043;28;20038;-83
2022/09/02 06:19:34;;;;;;;0.10;0.10;;;14.10;99.90;;;;;;5017002;28;20045;-83
2022/09/02 06:22:02;;;;;;;0.20;0.20;;;14.20;99.90;;;;;;5013885;28;20038;-82
2022/09/02 06:24:29;;;;;;;0.20;0.20;;;14.20;99.90;;;;;;5019752;28;20045;-81
2022/09/02 06:26:56;;;;;;;0.20;0.20;;;14.20;99.90;;;;;;5018091;28;20568;-83
2022/09/02 06:29:24;;;;;;;0.20;0.20;;;14.30;99.90;;;;;;5020300;28;20077;-84
2022/09/02 06:31:51;;;;;;;0.20;0.20;;;14.30;99.90;;;;;;5017240;28;20041;-82
2022/09/02 06:34:19;;;;;;;0.13;0.13;;;14.40;99.90;;;;;;5022001;28;20045;-83
2022/09/02 06:36:47;;;;;;;0.10;0.10;;;14.50;99.90;;;;;;5017828;28;20551;-80
2022/09/02 06:39:15;;;;;;;0.10;0.10;;;14.50;99.90;;;;;;5016907;28;20066;-81
2022/09/02 06:41:42;;;;;;;0.10;0.10;;;14.50;99.90;;;;;;5022458;28;20120;-80
2022/09/02 06:44:10;;;;;;;0.20;0.20;;;14.60;99.90;;;;;;5019736;28;20053;-81
2022/09/02 06:46:39;;;;;;;0.20;0.20;;;14.60;99.90;;;;;;5013976;28;20123;-80
2022/09/02 06:49:07;;;;;;;0.20;0.20;;;14.70;99.90;;;;;;5018785;28;20045;-81
2022/09/02 06:51:40;;;;;;;0.20;0.20;;;14.70;99.90;;;;;;5018822;28;20037;-81
2022/09/02 06:54:09;;;;;;;0.20;0.20;;;14.80;99.90;;;;;;5020450;28;20044;-81
2022/09/02 06:56:36;;;;;;;0.20;0.20;;;14.90;99.90;;;;;;5018150;28;20128;-80
2022/09/02 06:59:02;;;;;;;0.15;0.15;;;14.90;99.90;;;;;;5020433;28;20127;-81
2022/09/02 07:01:31;;;;;;;0.10;0.10;;;15.00;99.90;;;;;;5021012;28;20050;-81
2022/09/02 07:06:43;;;;;;;0.20;0.20;;;15.10;99.90;;;;;;5018129;28;20537;-82
2022/09/02 07:09:12;;;;;;;0.17;0.17;;;15.20;99.90;;;;;;5021753;28;20037;-81
2022/09/02 07:11:38;;;;;;;0.20;0.20;;;15.30;99.90;;;;;;5015329;28;20060;-80
2022/09/02 07:14:05;;;;;;;0.10;0.10;;;15.20;99.90;;;;;;5012667;28;20091;-79
2022/09/02 07:16:35;;;;;;;0.20;0.20;;;15.30;99.90;;;;;;5019971;28;20041;-80
2022/09/02 07:19:01;;;;;;;0.10;0.10;;;15.40;99.90;;;;;;5019032;28;20041;-80
2022/09/02 07:21:30;;;;;;;0.10;0.10;;;15.40;99.90;;;;;;5021563;28;20050;-80
2022/09/02 07:24:00;;;;;;;0.20;0.20;;;15.50;99.90;;;;;;5021027;28;20176;-80
2022/09/02 07:26:27;;;;;;;0.13;0.13;;;15.50;99.90;;;;;;5019884;28;20145;-81
2022/09/02 07:28:54;;;;;;;0.10;0.10;;;15.60;99.90;;;;;;5018659;28;20503;-80
2022/09/02 07:31:22;;;;;;;0.20;0.20;;;15.60;99.90;;;;;;5022413;28;20091;-80
2022/09/02 07:33:48;;;;;;;0.20;0.20;;;15.70;99.90;;;;;;5022056;28;20507;-79
2022/09/02 07:36:14;;;;;;;0.20;0.20;;;15.80;99.90;;;;;;5019410;28;20172;-82
2022/09/02 07:38:41;;;;;;;0.20;0.20;;;15.80;99.90;;;;;;5021659;28;20053;-81
2022/09/02 07:41:09;;;;;;;0.20;0.20;;;15.90;99.90;;;;;;5015518;28;20041;-80
2022/09/02 07:43:37;;;;;;;0.10;0.10;;;16.00;99.90;;;;;;5017329;28;20041;-78
2022/09/02 07:46:04;;;;;;;0.20;0.20;;;16.10;99.90;;;;;;5016795;28;21239;-80
2022/09/02 07:48:30;;;;;;;0.10;0.10;;;16.10;99.90;;;;;;5025099;28;20052;-80
2022/09/02 07:50:57;;;;;;;0.20;0.20;;;16.20;99.90;;;;;;5019502;28;20046;-80
2022/09/02 07:53:24;;;;;;;0.20;0.20;;;16.20;99.90;;;;;;5021968;28;20040;-80
2022/09/02 07:55:50;;;;;;;0.20;0.20;;;16.40;99.90;;;;;;5012157;28;20063;-80
2022/09/02 07:58:19;;;;;;;0.30;0.30;;;16.40;99.90;;;;;;5014850;28;20060;-80
2022/09/02 08:00:46;;;;;;;0.20;0.20;;;16.40;99.80;;;;;;5013275;28;20046;-80
2022/09/02 08:03:13;;;;;;;0.20;0.20;;;16.50;99.70;;;;;;5014728;28;20056;-81
2022/09/02 08:05:39;;;;;;;0.20;0.20;;;16.60;99.70;;;;;;5013269;28;20385;-79
2022/09/02 08:08:05;;;;;;;0.10;0.10;;;16.70;99.70;;;;;;5020153;28;20548;-80
2022/09/02 08:10:31;;;;;;;0.20;0.20;;;16.80;99.60;;;;;;5018330;28;21085;-80
2022/09/02 08:13:01;;;;;;;0.20;0.20;;;16.80;99.50;;;;;;5012364;28;20041;-80
2022/09/02 08:15:29;;;;;;;0.10;0.10;;;16.80;99.50;;;;;;5014711;28;20057;-80
2022/09/02 08:17:56;;;;;;;0.20;0.20;;;17.00;99.40;;;;;;5017982;28;20128;-80
2022/09/02 08:20:22;;;;;;;0.20;0.20;;;17.10;99.50;;;;;;5013553;28;20468;-79
2022/09/02 08:22:48;;;;;;;0.20;0.20;;;17.20;99.30;;;;;;5028116;28;20064;-80
2022/09/02 08:25:17;;;;;;;0.20;0.20;;;17.20;99.20;;;;;;5032106;28;20045;-80
2022/09/02 08:27:43;;;;;;;0.20;0.20;;;17.20;99.10;;;;;;5030272;28;20068;-80
2022/09/02 08:30:09;;;;;;;0.20;0.20;;;17.40;99.20;;;;;;5030298;28;20045;-80
2022/09/02 08:32:36;;;;;;;0.20;0.20;;;17.50;99.00;;;;;;5013300;28;20045;-80
2022/09/02 08:35:04;;;;;;;0.20;0.20;;;17.50;98.90;;;;;;5023518;28;20427;-81
2022/09/02 08:37:31;;;;;;;0.20;0.20;;;17.60;98.80;;;;;;5031830;28;20120;-81
2022/09/02 08:39:57;;;;;;;0.20;0.20;;;17.70;98.70;;;;;;5032739;28;20049;-81
2022/09/02 08:42:36;;;;;;;0.10;0.10;;;17.80;98.70;;;;;;5031874;28;20051;-82
2022/09/02 08:45:14;;;;;;;0.20;0.20;;;17.90;98.70;;;;;;5030426;28;20057;-81
2022/09/02 08:47:44;;;;;;;0.10;0.10;;;17.90;98.80;;;;;;5012223;28;20444;-80
2022/09/02 08:50:17;;;;;;;0.20;0.20;;;18.00;98.60;;;;;;5012124;28;20084;-81
2022/09/02 08:52:46;;;;;;;0.15;0.15;;;18.10;98.40;;;;;;5030109;28;20125;-80
2022/09/02 08:55:21;;;;;;;0.20;0.20;;;18.20;98.30;;;;;;5032078;28;20435;-81
2022/09/02 08:57:48;;;;;;;0.20;0.20;;;18.30;98.20;;;;;;5029641;28;20049;-81
2022/09/02 09:00:14;;;;;;;0.20;0.20;;;18.40;98.10;;;;;;5031520;28;20041;-81
2022/09/02 09:02:55;;;;;;;0.20;0.20;;;18.50;98.10;;;;;;5024971;28;20044;-82
2022/09/02 09:05:39;;;;;;;0.20;0.20;;;18.50;97.80;;;;;;5016841;28;20563;-80
2022/09/02 09:08:42;;;;;;;0.20;0.20;;;18.60;97.70;;;;;;5029957;28;20509;-80
2022/09/02 09:11:22;;;;;;;0.10;0.10;;;18.60;97.50;;;;;;5031486;28;20045;-81
2022/09/02 09:14:07;;;;;;;0.20;0.20;;;18.70;97.50;;;;;;5029921;28;20510;-80
2022/09/02 09:17:25;;;;;;;0.20;0.20;;;18.80;97.40;;;;;;5030104;28;20060;-80
2022/09/02 09:19:59;;;;;;;0.20;0.20;;;18.90;97.10;;;;;;5022037;28;20065;-82
2022/09/02 09:22:32;;;;;;;0.20;0.20;;;19.00;97.00;;;;;;5012544;28;20404;-81
2022/09/02 09:24:58;;;;;;;0.20;0.20;;;19.10;96.80;;;;;;5012730;28;20057;-80
2022/09/02 09:27:24;;;;;;;0.20;0.20;;;19.10;96.60;;;;;;5010556;28;20104;-81
2022/09/02 09:29:51;;;;;;;0.20;0.20;;;19.20;96.30;;;;;;5018970;28;20124;-81
2022/09/02 09:32:28;;;;;;;0.20;0.20;;;19.30;96.20;;;;;;5012195;28;20092;-80
2022/09/02 09:35:13;;;;;;;0.20;0.20;;;19.40;95.90;;;;;;5010664;28;20482;-81
2022/09/02 09:37:45;;;;;;;0.20;0.20;;;19.40;95.70;;;;;;5029594;28;20077;-80
2022/09/02 09:40:22;;;;;;;0.10;0.10;;;19.50;95.40;;;;;;5030936;28;20088;-80
2022/09/02 09:43:08;;;;;;;0.20;0.20;;;19.60;95.20;;;;;;5025397;28;20038;-80
2022/09/02 09:45:48;;;;;;;0.10;0.10;;;19.60;95.00;;;;;;5010161;28;20046;-80
2022/09/02 09:48:16;;;;;;;0.10;0.10;;;19.70;94.80;;;;;;5011010;28;20053;-80
2022/09/02 09:50:44;;;;;;;0.10;0.10;;;19.80;94.70;;;;;;5009938;28;20072;-80
2022/09/02 09:53:19;;;;;;;0.20;0.20;;;19.80;94.70;;;;;;5009901;28;20081;-80
2022/09/02 09:56:22;;;;;;;0.20;0.20;;;19.90;94.50;;;;;;5022171;28;20408;-81
2022/09/02 09:58:48;;;;;;;0.20;0.20;;;20.00;94.40;;;;;;5031449;28;20076;-81
2022/09/02 10:01:28;;;;;;;0.10;0.10;;;20.10;94.10;;;;;;5018444;28;20057;-81
2022/09/02 10:04:31;;;;;;;0.10;0.10;;;20.20;93.80;;;;;;5024831;28;20049;-81
2022/09/02 10:06:57;;;;;;;0.20;0.20;;;20.30;93.80;;;;;;5029906;28;20045;-80
2022/09/02 10:09:34;;;;;;;0.20;0.20;;;20.40;93.60;;;;;;5029643;28;20103;-81
2022/09/02 10:12:04;;;;;;;0.20;0.20;;;20.50;93.60;;;;;;5021676;28;20041;-81
2022/09/02 10:14:45;;;;;;;0.20;0.20;;;20.50;93.10;;;;;;5028116;28;20049;-80
2022/09/02 10:17:34;;;;;;;0.10;0.10;;;20.60;93.00;;;;;;5029607;28;20045;-81
2022/09/02 10:20:18;;;;;;;0.20;0.20;;;20.60;92.70;;;;;;5030798;28;20064;-81
2022/09/02 10:23:21;;;;;;;0.20;0.20;;;20.70;92.60;;;;;;5029955;28;20103;-81
2022/09/02 10:26:14;;;;;;;0.20;0.20;;;20.80;92.40;;;;;;5028618;28;20060;-81
2022/09/02 10:28:42;;;;;;;0.17;0.17;;;20.90;92.30;;;;;;5015836;28;20061;-81
2022/09/02 10:31:42;;;;;;;0.20;0.20;;;21.00;92.00;;;;;;5009349;28;20042;-81
2022/09/02 10:34:22;;;;;;;0.20;0.20;;;21.10;91.90;;;;;;5025819;28;20559;-81
2022/09/02 10:37:23;;;;;;;0.20;0.20;;;21.20;91.60;;;;;;5013206;28;20129;-81
2022/09/02 10:40:19;;;;;;;0.20;0.20;;;21.30;91.40;;;;;;5011391;28;20045;-81
2022/09/02 10:43:06;;;;;;;0.20;0.20;;;21.30;91.20;;;;;;5029196;28;20049;-80
2022/09/02 10:45:46;;;;;;;0.20;0.20;;;21.40;90.80;;;;;;5011234;28;20056;-81
2022/09/02 10:48:49;;;;;;;0.20;0.20;;;21.50;90.40;;;;;;5009142;28;20092;-80
2022/09/02 10:51:24;;;;;;;0.20;0.20;;;21.60;90.30;;;;;;5008951;28;20088;-81
2022/09/02 10:53:58;;;;;;;0.10;0.10;;;21.70;90.10;;;;;;5010559;28;20129;-80
2022/09/02 10:56:39;;;;;;;0.20;0.20;;;21.60;89.50;;;;;;5014478;28;20046;-80
2022/09/02 10:59:13;;;;;;;0.20;0.20;;;21.80;89.30;;;;;;5016160;28;20042;-78
2022/09/02 11:02:03;;;;;;;0.20;0.20;;;21.80;88.50;;;;;;5008850;28;20042;-80
2022/09/02 11:04:39;;;;;;;0.20;0.20;;;21.90;88.40;;;;;;5013968;28;20052;-80
2022/09/02 11:07:15;;;;;;;0.20;0.20;;;22.00;88.00;;;;;;5025259;28;20053;-80
2022/09/02 11:09:53;;;;;;;0.20;0.20;;;22.10;87.90;;;;;;5024277;28;20078;-79
2022/09/02 11:12:21;;;;;;;0.10;0.10;;;22.20;87.10;;;;;;5024795;28;20121;-81
2022/09/02 11:15:00;;;;;;;0.20;0.20;;;22.30;86.80;;;;;;5031770;28;20163;-79
2022/09/02 11:17:34;;;;;;;0.20;0.20;;;22.30;86.10;;;;;;5033428;28;20125;-81
2022/09/02 11:20:23;;;;;;;0.20;0.20;;;22.40;86.20;;;;;;5026483;28;20388;-80
2022/09/02 11:23:12;;;;;;;0.20;0.20;;;22.50;85.70;;;;;;5033157;28;20040;-80
2022/09/02 11:25:48;;;;;;;0.20;0.20;;;22.60;85.70;;;;;;5029609;28;20083;-80
2022/09/02 11:28:27;;;;;;;0.20;0.20;;;22.70;84.90;;;;;;5022449;28;20444;-79
2022/09/02 11:31:12;;;;;;;0.20;0.20;;;22.70;84.10;;;;;;5031693;28;20041;-81
2022/09/02 11:33:53;;;;;;;0.10;0.10;;;22.80;84.00;;;;;;5020559;28;20050;-80
2022/09/02 11:36:18;;;;;;;0.20;0.20;;;23.00;83.80;;;;;;5021516;28;20901;-80
2022/09/02 11:38:48;;;;;;;0.20;0.20;;;23.00;83.40;;;;;;5011661;28;20069;-80
2022/09/02 11:41:50;;;;;;;0.28;0.28;;;23.10;83.90;;;;;;5012419;28;20089;-80
2022/09/02 11:44:44;;;;;;;0.30;0.30;;;23.30;82.50;;;;;;5023873;28;20485;-81
2022/09/02 11:47:24;;;;;;;0.20;0.20;;;23.30;81.80;;;;;;5031154;28;20045;-81
2022/09/02 11:50:09;;;;;;;0.30;0.30;;;23.50;81.00;;;;;;5030942;28;20053;-81
2022/09/02 11:53:00;;;;;;;0.20;0.20;;;23.50;80.80;;;;;;5017361;28;20409;-81
2022/09/02 11:55:45;;;;;;;0.20;0.20;;;23.60;80.20;;;;;;5027177;28;20106;-80
2022/09/02 11:58:36;;;;;;;0.20;0.20;;;23.80;79.80;;;;;;5020262;28;20047;-81
2022/09/02 12:01:04;;;;;;;0.30;0.30;;;23.90;79.20;;;;;;5025438;28;20033;-79
2022/09/02 12:03:33;;;;;;;0.30;0.30;;;24.10;79.30;;;;;;5025477;28;20060;-80
2022/09/02 12:06:07;;;;;;;0.20;0.20;;;24.30;78.80;;;;;;5026489;28;20463;-81
2022/09/02 12:08:35;;;;;;;0.20;0.20;;;24.40;79.10;;;;;;5011472;28;20088;-81
2022/09/02 12:11:04;;;;;;;0.30;0.30;;;24.60;78.50;;;;;;5012629;28;20129;-80
2022/09/02 12:13:39;;;;;;;0.20;0.20;;;24.70;78.10;;;;;;5010859;28;20088;-81
2022/09/02 12:16:14;;;;;;;0.28;0.28;;;24.90;78.00;;;;;;5010513;28;20041;-81
2022/09/02 12:19:09;;;;;;;0.20;0.20;;;25.10;77.90;;;;;;5031879;28;20053;-81
2022/09/02 12:21:55;;;;;;;0.20;0.20;;;25.30;77.20;;;;;;5022456;28;20073;-81
2022/09/02 12:24:23;;;;;;;0.20;0.20;;;25.50;76.60;;;;;;5023529;28;20041;-79
2022/09/02 12:26:51;;;;;;;0.20;0.20;;;25.70;76.50;;;;;;5029444;28;20061;-80
2022/09/02 12:29:21;;;;;;;0.20;0.20;;;25.80;75.90;;;;;;5032125;28;20045;-80
2022/09/02 12:31:49;;;;;;;0.30;0.30;;;26.00;75.60;;;;;;5025999;28;20061;-80
2022/09/02 12:34:21;;;;;;;0.20;0.20;;;26.10;75.40;;;;;;5019597;28;20080;-80
2022/09/02 12:36:56;;;;;;;0.20;0.20;;;26.30;74.60;;;;;;5010788;28;20050;-80
2022/09/02 12:39:22;;;;;;;0.30;0.30;;;26.40;74.50;;;;;;5011845;28;20057;-80
2022/09/02 12:41:59;;;;;;;0.20;0.20;;;26.50;73.90;;;;;;5012940;28;20037;-80
2022/09/02 12:45:19;;;;;;;0.20;0.20;;;26.70;72.30;;;;;;5011562;28;20054;-80
2022/09/02 12:48:16;;;;;;;0.20;0.20;;;26.70;72.90;;;;;;5004052;28;20060;-80
2022/09/02 12:50:56;;;;;;;0.22;0.22;;;26.80;72.30;;;;;;5010531;28;20108;-80
2022/09/02 12:53:39;;;;;;;0.22;0.22;;;26.90;71.60;;;;;;5012076;28;20125;-80
2022/09/02 12:56:14;;;;;;;0.20;0.20;;;27.00;71.10;;;;;;5016588;28;20104;-80
2022/09/02 12:58:53;;;;;;;0.20;0.20;;;27.10;70.50;;;;;;5011597;28;20413;-79
2022/09/02 13:01:35;;;;;;;0.20;0.20;;;27.10;70.20;;;;;;5011601;28;20049;-79
2022/09/02 13:04:06;;;;;;;0.20;0.20;;;27.20;69.80;;;;;;5010791;28;20048;-78
2022/09/02 13:07:06;;;;;;;0.20;0.20;;;27.20;69.60;;;;;;5009875;28;20053;-79
2022/09/02 13:10:01;;;;;;;0.25;0.25;;;27.20;69.40;;;;;;5011456;28;20115;-78
2022/09/02 13:12:48;;;;;;;0.20;0.20;;;27.30;69.00;;;;;;5032180;28;20037;-80